THY8AL LTFM-LFPG
Flight info
| Callsign | THY8AL |
|---|---|
| Flight time | 3h 6m |
| Altitude | 34000 |
| Route | TUDBU1D/35L TUDBU Q26 ETUBA DCT ELDET DCT BACAM DCT SODGO DCT DIDIX DCT INVED DCT STEIN DCT RENKA L610 STAUB/N0393F240 L610 MAMOR DCT ASPAT DCT VIBOM DCT BETEX DCT IDOSA DCT TOLVU/N0443F350 DCT RAPOR DCT VEDUS |
| Aircraft | A321/M-SDE3FGHIRWY/LB1 |
Departure
| Time | 2026-05-06 21:04 |
|---|---|
| Airport | İstanbul Airport (LTFM) |
Arrival
| Time | 2026-05-07 00:10 |
|---|---|
| Airport | Charles de Gaulle International Airport (LFPG) |
| Time | Latitude | Longitude | Altitude | Speed | Heading |
|---|---|---|---|---|---|
| 2026-05-06 20:17 | 41.26370 | 28.73831 | 334 ft | 0 kts | 244° |
| 2026-05-06 20:46 | 41.26370 | 28.73832 | 334 ft | 1 kts | 244° |
| 2026-05-06 20:46 | 41.26377 | 28.73851 | 329 ft | 3 kts | 243° |
| 2026-05-06 20:46 | 41.26386 | 28.73874 | 330 ft | 3 kts | 244° |
| 2026-05-06 20:46 | 41.26395 | 28.73898 | 329 ft | 3 kts | 238° |
| 2026-05-06 20:47 | 41.26407 | 28.73919 | 334 ft | 3 kts | 217° |
| 2026-05-06 20:47 | 41.26422 | 28.73930 | 334 ft | 3 kts | 180° |
| 2026-05-06 20:47 | 41.26435 | 28.73928 | 334 ft | 2 kts | 162° |
| 2026-05-06 20:47 | 41.26453 | 28.73920 | 329 ft | 3 kts | 162° |
| 2026-05-06 20:48 | 41.26471 | 28.73912 | 334 ft | 2 kts | 162° |
| 2026-05-06 20:48 | 41.26474 | 28.73910 | 334 ft | 0 kts | 162° |
| 2026-05-06 20:51 | 41.26474 | 28.73911 | 334 ft | 0 kts | 165° |
| 2026-05-06 20:52 | 41.26445 | 28.73925 | 334 ft | 10 kts | 158° |
| 2026-05-06 20:52 | 41.26421 | 28.74002 | 333 ft | 9 kts | 72° |
| 2026-05-06 20:52 | 41.26467 | 28.74029 | 334 ft | 8 kts | 1° |
| 2026-05-06 20:52 | 41.26519 | 28.74026 | 330 ft | 8 kts | 1° |
| 2026-05-06 20:53 | 41.26575 | 28.74022 | 334 ft | 8 kts | 358° |
| 2026-05-06 20:53 | 41.26636 | 28.74023 | 332 ft | 9 kts | 0° |
| 2026-05-06 20:53 | 41.26701 | 28.74021 | 330 ft | 10 kts | 359° |
| 2026-05-06 20:53 | 41.26772 | 28.74019 | 329 ft | 10 kts | 359° |
| 2026-05-06 20:54 | 41.26847 | 28.74017 | 334 ft | 11 kts | 359° |
| 2026-05-06 20:54 | 41.26917 | 28.74017 | 334 ft | 7 kts | 0° |
| 2026-05-06 20:54 | 41.26959 | 28.74043 | 330 ft | 7 kts | 54° |
| 2026-05-06 20:54 | 41.26966 | 28.74112 | 332 ft | 8 kts | 88° |
| 2026-05-06 20:55 | 41.26967 | 28.74191 | 334 ft | 9 kts | 89° |
| 2026-05-06 20:55 | 41.26972 | 28.74276 | 332 ft | 10 kts | 88° |
| 2026-05-06 20:55 | 41.26970 | 28.74367 | 334 ft | 10 kts | 90° |
| 2026-05-06 20:55 | 41.26972 | 28.74463 | 331 ft | 11 kts | 88° |
| 2026-05-06 20:56 | 41.26971 | 28.74563 | 332 ft | 11 kts | 93° |
| 2026-05-06 20:56 | 41.26972 | 28.74627 | 334 ft | 5 kts | 88° |
| 2026-05-06 20:56 | 41.26974 | 28.74677 | 330 ft | 6 kts | 88° |
| 2026-05-06 20:56 | 41.26975 | 28.74755 | 332 ft | 12 kts | 89° |
| 2026-05-06 20:57 | 41.26977 | 28.74867 | 334 ft | 12 kts | 89° |
| 2026-05-06 20:57 | 41.26978 | 28.74985 | 334 ft | 13 kts | 89° |
| 2026-05-06 20:57 | 41.26980 | 28.75106 | 334 ft | 11 kts | 89° |
| 2026-05-06 20:57 | 41.26982 | 28.75212 | 334 ft | 12 kts | 88° |
| 2026-05-06 20:58 | 41.26982 | 28.75297 | 334 ft | 4 kts | 89° |
| 2026-05-06 20:58 | 41.26982 | 28.75298 | 334 ft | 0 kts | 89° |
| 2026-05-06 20:59 | 41.26983 | 28.75313 | 334 ft | 5 kts | 89° |
| 2026-05-06 20:59 | 41.26957 | 28.75365 | 329 ft | 8 kts | 151° |
| 2026-05-06 21:00 | 41.26904 | 28.75375 | 334 ft | 8 kts | 178° |
| 2026-05-06 21:00 | 41.26845 | 28.75377 | 329 ft | 8 kts | 179° |
| 2026-05-06 21:00 | 41.26791 | 28.75378 | 334 ft | 8 kts | 179° |
| 2026-05-06 21:00 | 41.26732 | 28.75379 | 334 ft | 9 kts | 179° |
| 2026-05-06 21:01 | 41.26667 | 28.75381 | 332 ft | 10 kts | 178° |
| 2026-05-06 21:01 | 41.26599 | 28.75384 | 330 ft | 10 kts | 179° |
| 2026-05-06 21:01 | 41.26525 | 28.75384 | 330 ft | 11 kts | 179° |
| 2026-05-06 21:01 | 41.26462 | 28.75388 | 334 ft | 8 kts | 172° |
| 2026-05-06 21:02 | 41.26426 | 28.75435 | 329 ft | 8 kts | 109° |
| 2026-05-06 21:02 | 41.26424 | 28.75509 | 332 ft | 8 kts | 89° |
| 2026-05-06 21:02 | 41.26426 | 28.75590 | 334 ft | 9 kts | 88° |
| 2026-05-06 21:02 | 41.26457 | 28.75656 | 331 ft | 9 kts | 25° |
| 2026-05-06 21:03 | 41.26522 | 28.75663 | 332 ft | 11 kts | 358° |
| 2026-05-06 21:03 | 41.26770 | 28.75658 | 333 ft | 70 kts | 360° |
| 2026-05-06 21:03 | 41.27485 | 28.75642 | 334 ft | 132 kts | 359° |
| 2026-05-06 21:03 | 41.28567 | 28.75636 | 405 ft | 173 kts | 0° |
| 2026-05-06 21:04 | 41.29736 | 28.75686 | 1135 ft | 167 kts | 15° |
| 2026-05-06 21:04 | 41.30699 | 28.76493 | 1711 ft | 166 kts | 43° |
| 2026-05-06 21:04 | 41.31631 | 28.77540 | 1941 ft | 187 kts | 36° |
| 2026-05-06 21:04 | 41.32800 | 28.78511 | 2086 ft | 209 kts | 31° |
| 2026-05-06 21:05 | 41.34113 | 28.79485 | 2325 ft | 221 kts | 30° |
| 2026-05-06 21:05 | 41.35517 | 28.80509 | 2429 ft | 244 kts | 30° |
| 2026-05-06 21:05 | 41.37060 | 28.81637 | 2825 ft | 258 kts | 29° |
| 2026-05-06 21:05 | 41.38769 | 28.82423 | 3438 ft | 264 kts | 5° |
| 2026-05-06 21:06 | 41.40609 | 28.82299 | 4106 ft | 266 kts | 354° |
| 2026-05-06 21:06 | 41.42459 | 28.82059 | 4777 ft | 268 kts | 354° |
| 2026-05-06 21:06 | 41.44335 | 28.81822 | 5390 ft | 273 kts | 354° |
| 2026-05-06 21:06 | 41.46234 | 28.81584 | 6015 ft | 276 kts | 353° |
| 2026-05-06 21:07 | 41.48131 | 28.81349 | 6662 ft | 277 kts | 353° |
| 2026-05-06 21:07 | 41.50060 | 28.81107 | 7322 ft | 278 kts | 353° |
| 2026-05-06 21:07 | 41.51988 | 28.80868 | 8000 ft | 278 kts | 353° |
| 2026-05-06 21:07 | 41.53918 | 28.80611 | 8632 ft | 280 kts | 349° |
| 2026-05-06 21:08 | 41.55745 | 28.79753 | 9218 ft | 280 kts | 327° |
| 2026-05-06 21:08 | 41.57159 | 28.77988 | 9790 ft | 282 kts | 304° |
| 2026-05-06 21:08 | 41.58127 | 28.75689 | 10253 ft | 290 kts | 299° |
| 2026-05-06 21:08 | 41.59107 | 28.73230 | 10378 ft | 309 kts | 299° |
| 2026-05-06 21:09 | 41.60149 | 28.70611 | 10511 ft | 327 kts | 299° |
| 2026-05-06 21:09 | 41.61226 | 28.67905 | 10764 ft | 338 kts | 299° |
| 2026-05-06 21:09 | 41.62346 | 28.65094 | 11254 ft | 343 kts | 299° |
| 2026-05-06 21:09 | 41.63469 | 28.62269 | 11793 ft | 345 kts | 300° |
| 2026-05-06 21:10 | 41.64601 | 28.59424 | 12331 ft | 348 kts | 300° |
| 2026-05-06 21:10 | 41.65740 | 28.56559 | 12856 ft | 350 kts | 300° |
| 2026-05-06 21:10 | 41.66870 | 28.53707 | 13351 ft | 353 kts | 300° |
| 2026-05-06 21:10 | 41.68024 | 28.50786 | 13849 ft | 356 kts | 300° |
| 2026-05-06 21:11 | 41.69187 | 28.47846 | 14339 ft | 358 kts | 300° |
| 2026-05-06 21:11 | 41.70358 | 28.44888 | 14822 ft | 361 kts | 300° |
| 2026-05-06 21:11 | 41.71542 | 28.41901 | 15299 ft | 364 kts | 300° |
| 2026-05-06 21:11 | 41.72739 | 28.38888 | 15749 ft | 367 kts | 300° |
| 2026-05-06 21:12 | 41.73943 | 28.35856 | 16204 ft | 370 kts | 300° |
| 2026-05-06 21:12 | 41.75152 | 28.32806 | 16660 ft | 372 kts | 300° |
| 2026-05-06 21:12 | 41.76350 | 28.29766 | 17090 ft | 375 kts | 299° |
| 2026-05-06 21:12 | 41.77567 | 28.26665 | 17496 ft | 377 kts | 299° |
| 2026-05-06 21:13 | 41.78793 | 28.23539 | 17913 ft | 380 kts | 299° |
| 2026-05-06 21:13 | 41.80030 | 28.20384 | 18317 ft | 383 kts | 299° |
| 2026-05-06 21:13 | 41.81272 | 28.17219 | 18723 ft | 385 kts | 299° |
| 2026-05-06 21:13 | 41.82526 | 28.14024 | 19130 ft | 387 kts | 299° |
| 2026-05-06 21:14 | 41.83782 | 28.10825 | 19530 ft | 389 kts | 299° |
| 2026-05-06 21:14 | 41.85044 | 28.07598 | 19910 ft | 391 kts | 299° |
| 2026-05-06 21:14 | 41.86308 | 28.04353 | 20295 ft | 392 kts | 299° |
| 2026-05-06 21:14 | 41.87557 | 28.01146 | 20663 ft | 394 kts | 299° |
| 2026-05-06 21:15 | 41.88831 | 27.97872 | 21021 ft | 396 kts | 300° |
| 2026-05-06 21:15 | 41.90113 | 27.94586 | 21377 ft | 398 kts | 299° |
| 2026-05-06 21:15 | 41.91402 | 27.91273 | 21732 ft | 400 kts | 300° |
| 2026-05-06 21:15 | 41.92692 | 27.87950 | 22087 ft | 401 kts | 299° |
| 2026-05-06 21:16 | 41.93969 | 27.84656 | 22425 ft | 403 kts | 300° |
| 2026-05-06 21:16 | 41.95266 | 27.81308 | 22771 ft | 405 kts | 299° |
| 2026-05-06 21:16 | 41.96698 | 27.78051 | 23089 ft | 404 kts | 308° |
| 2026-05-06 21:16 | 41.98506 | 27.75160 | 23405 ft | 404 kts | 316° |
| 2026-05-06 21:17 | 42.00489 | 27.72468 | 23738 ft | 405 kts | 316° |
| 2026-05-06 21:17 | 42.02478 | 27.69764 | 24054 ft | 407 kts | 316° |
| 2026-05-06 21:17 | 42.04471 | 27.67043 | 24366 ft | 409 kts | 316° |
| 2026-05-06 21:17 | 42.06469 | 27.64307 | 24677 ft | 410 kts | 316° |
| 2026-05-06 21:18 | 42.08468 | 27.61568 | 24989 ft | 411 kts | 316° |
| 2026-05-06 21:18 | 42.10473 | 27.58814 | 25306 ft | 412 kts | 316° |
| 2026-05-06 21:18 | 42.12484 | 27.56049 | 25606 ft | 413 kts | 316° |
| 2026-05-06 21:18 | 42.14471 | 27.53315 | 25890 ft | 414 kts | 316° |
| 2026-05-06 21:19 | 42.16493 | 27.50533 | 26195 ft | 415 kts | 316° |
| 2026-05-06 21:19 | 42.18517 | 27.47744 | 26488 ft | 416 kts | 316° |
| 2026-05-06 21:19 | 42.20541 | 27.44951 | 26777 ft | 417 kts | 316° |
| 2026-05-06 21:19 | 42.22574 | 27.42143 | 27063 ft | 418 kts | 316° |
| 2026-05-06 21:20 | 42.24613 | 27.39323 | 27343 ft | 419 kts | 316° |
| 2026-05-06 21:20 | 42.26650 | 27.36500 | 27619 ft | 420 kts | 316° |
| 2026-05-06 21:20 | 42.27313 | 27.35580 | 27708 ft | 420 kts | 316° |
| 2026-05-06 21:20 | 42.28230 | 27.34309 | 27823 ft | 421 kts | 316° |
| 2026-05-06 21:21 | 42.30280 | 27.31480 | 28085 ft | 421 kts | 316° |
| 2026-05-06 21:21 | 42.32330 | 27.28638 | 28347 ft | 422 kts | 316° |
| 2026-05-06 21:21 | 42.34379 | 27.25790 | 28618 ft | 423 kts | 316° |
| 2026-05-06 21:21 | 42.36428 | 27.22934 | 28860 ft | 423 kts | 316° |
| 2026-05-06 21:22 | 42.38456 | 27.20107 | 29079 ft | 424 kts | 316° |
| 2026-05-06 21:22 | 42.40510 | 27.17247 | 29292 ft | 424 kts | 316° |
| 2026-05-06 21:22 | 42.42577 | 27.14369 | 29507 ft | 425 kts | 316° |
| 2026-05-06 21:22 | 42.44638 | 27.11494 | 29711 ft | 426 kts | 316° |
| 2026-05-06 21:23 | 42.46698 | 27.08615 | 29914 ft | 426 kts | 316° |
| 2026-05-06 21:23 | 42.48760 | 27.05729 | 30214 ft | 424 kts | 316° |
| 2026-05-06 21:23 | 42.50807 | 27.02864 | 30490 ft | 422 kts | 316° |
| 2026-05-06 21:23 | 42.52844 | 27.00012 | 30748 ft | 420 kts | 316° |
| 2026-05-06 21:24 | 42.54856 | 26.97193 | 30987 ft | 420 kts | 316° |
| 2026-05-06 21:24 | 42.56888 | 26.94342 | 31217 ft | 419 kts | 316° |
| 2026-05-06 21:24 | 42.58912 | 26.91493 | 31454 ft | 418 kts | 316° |
| 2026-05-06 21:24 | 42.60929 | 26.88649 | 31690 ft | 417 kts | 316° |
| 2026-05-06 21:25 | 42.62942 | 26.85816 | 31917 ft | 416 kts | 316° |
| 2026-05-06 21:25 | 42.64953 | 26.82987 | 32136 ft | 415 kts | 316° |
| 2026-05-06 21:25 | 42.66928 | 26.80201 | 32338 ft | 414 kts | 315° |
| 2026-05-06 21:25 | 42.68924 | 26.77374 | 32561 ft | 414 kts | 315° |
| 2026-05-06 21:26 | 42.70915 | 26.74553 | 32786 ft | 413 kts | 315° |
| 2026-05-06 21:26 | 42.72901 | 26.71737 | 33003 ft | 411 kts | 315° |
| 2026-05-06 21:26 | 42.74882 | 26.68925 | 33198 ft | 411 kts | 315° |
| 2026-05-06 21:26 | 42.76862 | 26.66113 | 33372 ft | 410 kts | 315° |
| 2026-05-06 21:27 | 42.78814 | 26.63343 | 33557 ft | 410 kts | 315° |
| 2026-05-06 21:27 | 42.80785 | 26.60542 | 33746 ft | 409 kts | 314° |
| 2026-05-06 21:27 | 42.82582 | 26.57525 | 33947 ft | 410 kts | 309° |
| 2026-05-06 21:27 | 42.84273 | 26.54393 | 34055 ft | 410 kts | 309° |
| 2026-05-06 21:28 | 42.85961 | 26.51276 | 34072 ft | 408 kts | 309° |
| 2026-05-06 21:28 | 42.89335 | 26.45061 | 34065 ft | 407 kts | 309° |
| 2026-05-06 21:29 | 42.92682 | 26.38880 | 34063 ft | 407 kts | 309° |
| 2026-05-06 21:29 | 42.96046 | 26.32639 | 34053 ft | 407 kts | 309° |
| 2026-05-06 21:30 | 42.99405 | 26.26396 | 34053 ft | 407 kts | 309° |
| 2026-05-06 21:30 | 43.02740 | 26.20181 | 34055 ft | 408 kts | 308° |
| 2026-05-06 21:31 | 43.06096 | 26.13918 | 34058 ft | 408 kts | 309° |
| 2026-05-06 21:31 | 43.09437 | 26.07673 | 34056 ft | 408 kts | 308° |
| 2026-05-06 21:32 | 43.12787 | 26.01389 | 34057 ft | 409 kts | 309° |
| 2026-05-06 21:32 | 43.17793 | 25.91979 | 34053 ft | 408 kts | 308° |
| 2026-05-06 21:33 | 43.21144 | 25.85672 | 34049 ft | 409 kts | 308° |
| 2026-05-06 21:33 | 43.24489 | 25.79352 | 34046 ft | 410 kts | 308° |
| 2026-05-06 21:34 | 43.27837 | 25.73012 | 34042 ft | 410 kts | 308° |
| 2026-05-06 21:34 | 43.31185 | 25.66675 | 34047 ft | 410 kts | 308° |
| 2026-05-06 21:35 | 43.34514 | 25.60352 | 34048 ft | 411 kts | 308° |
| 2026-05-06 21:35 | 43.37853 | 25.53980 | 34050 ft | 411 kts | 308° |
| 2026-05-06 21:36 | 43.41193 | 25.47594 | 34053 ft | 411 kts | 308° |
| 2026-05-06 21:36 | 43.44536 | 25.41193 | 34055 ft | 412 kts | 308° |
| 2026-05-06 21:37 | 43.47880 | 25.34787 | 34056 ft | 412 kts | 308° |
| 2026-05-06 21:37 | 43.51210 | 25.28415 | 34056 ft | 412 kts | 308° |
| 2026-05-06 21:38 | 43.54554 | 25.21975 | 34058 ft | 413 kts | 307° |
| 2026-05-06 21:38 | 43.57896 | 25.15517 | 34057 ft | 413 kts | 307° |
| 2026-05-06 21:39 | 43.61211 | 25.09092 | 34059 ft | 413 kts | 307° |
| 2026-05-06 21:39 | 43.64557 | 25.02610 | 34060 ft | 414 kts | 307° |
| 2026-05-06 21:40 | 43.67898 | 24.96127 | 34059 ft | 414 kts | 307° |
| 2026-05-06 21:40 | 43.71242 | 24.89621 | 34059 ft | 415 kts | 307° |
| 2026-05-06 21:41 | 43.74563 | 24.83136 | 34058 ft | 415 kts | 307° |
| 2026-05-06 21:41 | 43.77896 | 24.76620 | 34059 ft | 415 kts | 307° |
| 2026-05-06 21:42 | 43.81240 | 24.70075 | 34057 ft | 415 kts | 306° |
| 2026-05-06 21:42 | 43.84571 | 24.63523 | 34056 ft | 416 kts | 306° |
| 2026-05-06 21:43 | 43.87875 | 24.57005 | 34053 ft | 416 kts | 306° |
| 2026-05-06 21:43 | 43.91211 | 24.50436 | 34054 ft | 417 kts | 306° |
| 2026-05-06 21:44 | 43.94552 | 24.43841 | 34053 ft | 417 kts | 306° |
| 2026-05-06 21:44 | 43.97881 | 24.37244 | 34053 ft | 417 kts | 306° |
| 2026-05-06 21:45 | 44.01207 | 24.30627 | 34051 ft | 418 kts | 306° |
| 2026-05-06 21:45 | 44.04521 | 24.24021 | 34052 ft | 418 kts | 306° |
| 2026-05-06 21:46 | 44.07853 | 24.17377 | 34055 ft | 418 kts | 306° |
| 2026-05-06 21:46 | 44.11190 | 24.10722 | 34057 ft | 419 kts | 306° |
| 2026-05-06 21:47 | 44.14494 | 24.04096 | 34053 ft | 419 kts | 306° |
| 2026-05-06 21:47 | 44.17813 | 23.97422 | 34049 ft | 418 kts | 305° |
| 2026-05-06 21:48 | 44.21129 | 23.90731 | 34049 ft | 419 kts | 305° |
| 2026-05-06 21:48 | 44.24421 | 23.84079 | 34047 ft | 419 kts | 305° |
| 2026-05-06 21:49 | 44.27725 | 23.77396 | 34047 ft | 418 kts | 305° |
| 2026-05-06 21:49 | 44.31480 | 23.71195 | 34047 ft | 417 kts | 312° |
| 2026-05-06 21:50 | 44.35392 | 23.65175 | 34045 ft | 418 kts | 312° |
| 2026-05-06 21:50 | 44.39275 | 23.59175 | 34046 ft | 418 kts | 312° |
| 2026-05-06 21:51 | 44.43176 | 23.53131 | 34047 ft | 418 kts | 312° |
| 2026-05-06 21:51 | 44.47047 | 23.47118 | 34046 ft | 418 kts | 312° |
| 2026-05-06 21:52 | 44.50935 | 23.41064 | 34045 ft | 418 kts | 311° |
| 2026-05-06 21:52 | 44.54824 | 23.35002 | 34038 ft | 418 kts | 311° |
| 2026-05-06 21:53 | 44.58052 | 23.29961 | 34043 ft | 418 kts | 311° |
| 2026-05-06 21:53 | 44.61948 | 23.23864 | 34043 ft | 418 kts | 311° |
| 2026-05-06 21:54 | 44.65835 | 23.17768 | 34040 ft | 418 kts | 311° |
| 2026-05-06 21:54 | 44.69703 | 23.11693 | 34038 ft | 419 kts | 311° |
| 2026-05-06 21:55 | 44.73579 | 23.05570 | 34038 ft | 419 kts | 311° |
| 2026-05-06 21:55 | 44.77432 | 22.99473 | 34034 ft | 419 kts | 311° |
| 2026-05-06 21:56 | 44.81310 | 22.93332 | 34032 ft | 419 kts | 311° |
| 2026-05-06 21:56 | 44.85196 | 22.87176 | 34023 ft | 419 kts | 311° |
| 2026-05-06 21:57 | 44.88997 | 22.80990 | 34030 ft | 419 kts | 309° |
| 2026-05-06 21:57 | 44.92670 | 22.74582 | 34029 ft | 419 kts | 308° |
| 2026-05-06 21:58 | 44.96306 | 22.68122 | 34026 ft | 419 kts | 308° |
| 2026-05-06 21:58 | 44.99944 | 22.61739 | 34023 ft | 419 kts | 308° |
| 2026-05-06 21:59 | 45.03627 | 22.55336 | 34023 ft | 419 kts | 308° |
| 2026-05-06 21:59 | 45.07316 | 22.48899 | 34007 ft | 420 kts | 308° |
| 2026-05-06 22:00 | 45.10965 | 22.42491 | 34010 ft | 420 kts | 308° |
| 2026-05-06 22:00 | 45.14634 | 22.36037 | 34004 ft | 420 kts | 308° |
| 2026-05-06 22:01 | 45.18299 | 22.29570 | 33993 ft | 421 kts | 308° |
| 2026-05-06 22:01 | 45.21960 | 22.23078 | 33989 ft | 421 kts | 308° |
| 2026-05-06 22:02 | 45.25608 | 22.16617 | 33981 ft | 421 kts | 307° |
| 2026-05-06 22:02 | 45.29282 | 22.10096 | 33974 ft | 422 kts | 307° |
| 2026-05-06 22:03 | 45.32921 | 22.03621 | 33973 ft | 422 kts | 307° |
| 2026-05-06 22:03 | 45.36587 | 21.97086 | 33973 ft | 422 kts | 307° |
| 2026-05-06 22:04 | 45.40250 | 21.90532 | 33964 ft | 423 kts | 307° |
| 2026-05-06 22:04 | 45.43898 | 21.83999 | 33963 ft | 424 kts | 307° |
| 2026-05-06 22:05 | 45.47572 | 21.77412 | 33962 ft | 424 kts | 307° |
| 2026-05-06 22:05 | 45.51217 | 21.70853 | 33961 ft | 424 kts | 307° |
| 2026-05-06 22:06 | 45.54874 | 21.64249 | 33965 ft | 424 kts | 307° |
| 2026-05-06 22:06 | 45.58536 | 21.57619 | 33967 ft | 425 kts | 307° |
| 2026-05-06 22:07 | 45.62193 | 21.50981 | 33965 ft | 425 kts | 306° |
| 2026-05-06 22:07 | 45.65831 | 21.44369 | 33970 ft | 424 kts | 306° |
| 2026-05-06 22:08 | 45.69483 | 21.37726 | 33966 ft | 425 kts | 306° |
| 2026-05-06 22:08 | 45.73114 | 21.31099 | 33962 ft | 425 kts | 306° |
| 2026-05-06 22:09 | 45.76751 | 21.24426 | 33964 ft | 424 kts | 306° |
| 2026-05-06 22:09 | 45.80368 | 21.17788 | 33957 ft | 425 kts | 306° |
| 2026-05-06 22:10 | 45.84004 | 21.11107 | 33951 ft | 425 kts | 306° |
| 2026-05-06 22:10 | 45.87646 | 21.04399 | 33944 ft | 426 kts | 306° |
| 2026-05-06 22:11 | 45.90957 | 20.97416 | 33943 ft | 425 kts | 300° |
| 2026-05-06 22:11 | 45.94109 | 20.90201 | 33946 ft | 426 kts | 300° |
| 2026-05-06 22:12 | 45.97256 | 20.82970 | 33946 ft | 426 kts | 300° |
| 2026-05-06 22:12 | 46.00411 | 20.75729 | 33945 ft | 427 kts | 300° |
| 2026-05-06 22:13 | 46.03568 | 20.68461 | 33934 ft | 428 kts | 299° |
| 2026-05-06 22:13 | 46.06704 | 20.61227 | 33933 ft | 429 kts | 299° |
| 2026-05-06 22:14 | 46.09865 | 20.53902 | 33934 ft | 430 kts | 299° |
| 2026-05-06 22:14 | 46.13026 | 20.46555 | 33947 ft | 431 kts | 299° |
| 2026-05-06 22:15 | 46.16169 | 20.39166 | 33946 ft | 431 kts | 297° |
| 2026-05-06 22:15 | 46.19002 | 20.31614 | 33949 ft | 431 kts | 294° |
| 2026-05-06 22:16 | 46.21673 | 20.23860 | 33951 ft | 431 kts | 294° |
| 2026-05-06 22:16 | 46.24358 | 20.16102 | 33948 ft | 431 kts | 294° |
| 2026-05-06 22:17 | 46.27076 | 20.08426 | 33955 ft | 431 kts | 295° |
| 2026-05-06 22:17 | 46.29830 | 20.00698 | 33951 ft | 432 kts | 295° |
| 2026-05-06 22:18 | 46.32577 | 19.92942 | 33957 ft | 432 kts | 294° |
| 2026-05-06 22:18 | 46.35285 | 19.85246 | 33955 ft | 432 kts | 294° |
| 2026-05-06 22:19 | 46.38000 | 19.77490 | 33958 ft | 431 kts | 294° |
| 2026-05-06 22:19 | 46.40722 | 19.69729 | 33962 ft | 432 kts | 294° |
| 2026-05-06 22:20 | 46.43433 | 19.61964 | 33959 ft | 431 kts | 294° |
| 2026-05-06 22:20 | 46.46121 | 19.54235 | 33960 ft | 431 kts | 294° |
| 2026-05-06 22:21 | 46.48819 | 19.46449 | 33965 ft | 431 kts | 294° |
| 2026-05-06 22:21 | 46.51493 | 19.38718 | 33964 ft | 430 kts | 294° |
| 2026-05-06 22:22 | 46.54174 | 19.30940 | 33966 ft | 430 kts | 294° |
| 2026-05-06 22:22 | 46.56855 | 19.23151 | 33966 ft | 430 kts | 293° |
| 2026-05-06 22:23 | 46.59503 | 19.15422 | 33969 ft | 430 kts | 293° |
| 2026-05-06 22:23 | 46.62169 | 19.07623 | 33973 ft | 429 kts | 293° |
| 2026-05-06 22:24 | 46.64824 | 18.99832 | 33972 ft | 429 kts | 293° |
| 2026-05-06 22:24 | 46.67451 | 18.92094 | 33971 ft | 428 kts | 293° |
| 2026-05-06 22:25 | 46.70090 | 18.84302 | 33965 ft | 428 kts | 293° |
| 2026-05-06 22:25 | 46.72710 | 18.76561 | 33958 ft | 428 kts | 292° |
| 2026-05-06 22:26 | 46.75340 | 18.68779 | 33963 ft | 427 kts | 292° |
| 2026-05-06 22:26 | 46.77954 | 18.60980 | 33952 ft | 427 kts | 292° |
| 2026-05-06 22:27 | 46.80554 | 18.53188 | 33952 ft | 427 kts | 292° |
| 2026-05-06 22:27 | 46.83133 | 18.45449 | 33955 ft | 426 kts | 292° |
| 2026-05-06 22:28 | 46.85730 | 18.37658 | 33953 ft | 427 kts | 292° |
| 2026-05-06 22:28 | 46.88323 | 18.29850 | 33949 ft | 426 kts | 292° |
| 2026-05-06 22:29 | 46.90909 | 18.22040 | 33950 ft | 426 kts | 292° |
| 2026-05-06 22:29 | 46.93471 | 18.14267 | 33954 ft | 426 kts | 292° |
| 2026-05-06 22:30 | 46.96040 | 18.06433 | 33936 ft | 425 kts | 292° |
| 2026-05-06 22:30 | 46.98595 | 17.98613 | 33930 ft | 425 kts | 292° |
| 2026-05-06 22:31 | 47.01143 | 17.90836 | 33931 ft | 426 kts | 291° |
| 2026-05-06 22:31 | 47.03705 | 17.83008 | 33930 ft | 426 kts | 291° |
| 2026-05-06 22:32 | 47.06257 | 17.75146 | 33924 ft | 426 kts | 291° |
| 2026-05-06 22:32 | 47.08796 | 17.67295 | 33921 ft | 426 kts | 291° |
| 2026-05-06 22:33 | 47.11325 | 17.59474 | 33918 ft | 426 kts | 291° |
| 2026-05-06 22:33 | 47.13862 | 17.51598 | 33913 ft | 426 kts | 291° |
| 2026-05-06 22:34 | 47.16370 | 17.43773 | 33909 ft | 426 kts | 291° |
| 2026-05-06 22:34 | 47.18886 | 17.35905 | 33905 ft | 426 kts | 291° |
| 2026-05-06 22:35 | 47.21408 | 17.27999 | 33905 ft | 425 kts | 291° |
| 2026-05-06 22:35 | 47.23902 | 17.20153 | 33909 ft | 426 kts | 291° |
| 2026-05-06 22:36 | 47.26408 | 17.12222 | 33909 ft | 426 kts | 291° |
| 2026-05-06 22:36 | 47.28910 | 17.04300 | 33908 ft | 426 kts | 291° |
| 2026-05-06 22:37 | 47.31393 | 16.96418 | 33910 ft | 426 kts | 290° |
| 2026-05-06 22:37 | 47.33886 | 16.88470 | 33911 ft | 426 kts | 290° |
| 2026-05-06 22:38 | 47.36372 | 16.80503 | 33912 ft | 426 kts | 290° |
| 2026-05-06 22:38 | 47.38833 | 16.72613 | 33908 ft | 426 kts | 290° |
| 2026-05-06 22:39 | 47.41316 | 16.64641 | 33897 ft | 426 kts | 290° |
| 2026-05-06 22:39 | 47.44008 | 16.56823 | 33884 ft | 429 kts | 296° |
| 2026-05-06 22:40 | 47.47010 | 16.49245 | 33884 ft | 430 kts | 296° |
| 2026-05-06 22:40 | 47.50023 | 16.41596 | 33879 ft | 430 kts | 295° |
| 2026-05-06 22:41 | 47.54532 | 16.30099 | 33871 ft | 431 kts | 296° |
| 2026-05-06 22:42 | 47.57543 | 16.22427 | 33871 ft | 431 kts | 295° |
| 2026-05-06 22:42 | 47.60546 | 16.14718 | 33874 ft | 432 kts | 295° |
| 2026-05-06 22:43 | 47.63530 | 16.07037 | 33875 ft | 432 kts | 295° |
| 2026-05-06 22:43 | 47.66525 | 15.99311 | 33887 ft | 432 kts | 295° |
| 2026-05-06 22:44 | 47.69509 | 15.91611 | 33892 ft | 432 kts | 295° |
| 2026-05-06 22:44 | 47.72500 | 15.83860 | 33892 ft | 433 kts | 295° |
| 2026-05-06 22:45 | 47.75485 | 15.76084 | 33898 ft | 433 kts | 295° |
| 2026-05-06 22:45 | 47.78464 | 15.68308 | 33893 ft | 433 kts | 295° |
| 2026-05-06 22:46 | 47.81422 | 15.60572 | 33898 ft | 433 kts | 295° |
| 2026-05-06 22:46 | 47.84391 | 15.52774 | 33901 ft | 432 kts | 295° |
| 2026-05-06 22:47 | 47.87353 | 15.44973 | 33913 ft | 432 kts | 294° |
| 2026-05-06 22:47 | 47.90301 | 15.37214 | 33910 ft | 432 kts | 294° |
| 2026-05-06 22:48 | 47.93250 | 15.29409 | 33913 ft | 431 kts | 294° |
| 2026-05-06 22:48 | 47.96187 | 15.21604 | 33914 ft | 430 kts | 294° |
| 2026-05-06 22:49 | 47.99114 | 15.13814 | 33912 ft | 430 kts | 294° |
| 2026-05-06 22:49 | 48.02012 | 15.06062 | 33919 ft | 430 kts | 293° |
| 2026-05-06 22:50 | 48.04927 | 14.98256 | 33918 ft | 429 kts | 294° |
| 2026-05-06 22:50 | 48.07840 | 14.90464 | 33919 ft | 428 kts | 293° |
| 2026-05-06 22:51 | 48.10709 | 14.82719 | 33922 ft | 428 kts | 293° |
| 2026-05-06 22:51 | 48.13122 | 14.76186 | 33928 ft | 427 kts | 293° |
| 2026-05-06 22:52 | 48.15976 | 14.68455 | 33930 ft | 426 kts | 292° |
| 2026-05-06 22:52 | 48.18841 | 14.60681 | 33935 ft | 425 kts | 292° |
| 2026-05-06 22:53 | 48.21696 | 14.52912 | 33936 ft | 425 kts | 292° |
| 2026-05-06 22:53 | 48.24525 | 14.45187 | 33937 ft | 424 kts | 292° |
| 2026-05-06 22:54 | 48.27362 | 14.37420 | 33937 ft | 423 kts | 292° |
| 2026-05-06 22:54 | 48.30185 | 14.29655 | 33942 ft | 424 kts | 292° |
| 2026-05-06 22:55 | 48.33001 | 14.21863 | 33937 ft | 423 kts | 292° |
| 2026-05-06 22:55 | 48.35818 | 14.14087 | 33935 ft | 423 kts | 292° |
| 2026-05-06 22:56 | 48.38615 | 14.06363 | 33934 ft | 422 kts | 292° |
| 2026-05-06 22:56 | 48.41416 | 13.98563 | 33932 ft | 422 kts | 292° |
| 2026-05-06 22:57 | 48.44207 | 13.90768 | 33931 ft | 423 kts | 292° |
| 2026-05-06 22:57 | 48.46976 | 13.83010 | 33927 ft | 423 kts | 291° |
| 2026-05-06 22:58 | 48.49759 | 13.75189 | 33925 ft | 423 kts | 292° |
| 2026-05-06 22:58 | 48.52538 | 13.67371 | 33922 ft | 422 kts | 291° |
| 2026-05-06 22:59 | 48.55314 | 13.59545 | 33922 ft | 423 kts | 291° |
| 2026-05-06 22:59 | 48.58080 | 13.51689 | 33916 ft | 423 kts | 290° |
| 2026-05-06 23:00 | 48.60186 | 13.43539 | 33915 ft | 418 kts | 284° |
| 2026-05-06 23:00 | 48.62172 | 13.35251 | 33913 ft | 419 kts | 284° |
| 2026-05-06 23:01 | 48.64164 | 13.26952 | 33911 ft | 420 kts | 284° |
| 2026-05-06 23:01 | 48.66141 | 13.18696 | 33908 ft | 420 kts | 283° |
| 2026-05-06 23:02 | 48.68124 | 13.10356 | 33904 ft | 421 kts | 283° |
| 2026-05-06 23:02 | 48.70104 | 13.01997 | 33900 ft | 422 kts | 283° |
| 2026-05-06 23:03 | 48.72080 | 12.93613 | 33904 ft | 423 kts | 283° |
| 2026-05-06 23:03 | 48.74044 | 12.85261 | 33904 ft | 423 kts | 283° |
| 2026-05-06 23:04 | 48.76017 | 12.76837 | 33902 ft | 424 kts | 283° |
| 2026-05-06 23:04 | 48.77979 | 12.68407 | 33906 ft | 424 kts | 283° |
| 2026-05-06 23:05 | 48.79936 | 12.59952 | 33910 ft | 425 kts | 283° |
| 2026-05-06 23:05 | 48.81884 | 12.51519 | 33912 ft | 425 kts | 283° |
| 2026-05-06 23:06 | 48.83840 | 12.43030 | 33910 ft | 426 kts | 283° |
| 2026-05-06 23:06 | 48.85793 | 12.34522 | 33912 ft | 426 kts | 283° |
| 2026-05-06 23:07 | 48.87719 | 12.26042 | 33913 ft | 427 kts | 282° |
| 2026-05-06 23:07 | 48.89641 | 12.17478 | 33917 ft | 427 kts | 282° |
| 2026-05-06 23:08 | 48.91476 | 12.08894 | 33915 ft | 426 kts | 281° |
| 2026-05-06 23:08 | 48.93276 | 12.00359 | 33912 ft | 426 kts | 281° |
| 2026-05-06 23:09 | 48.95100 | 11.91750 | 33903 ft | 427 kts | 281° |
| 2026-05-06 23:09 | 48.96925 | 11.83117 | 33901 ft | 428 kts | 281° |
| 2026-05-06 23:10 | 48.98738 | 11.74537 | 33905 ft | 429 kts | 281° |
| 2026-05-06 23:10 | 49.00561 | 11.65869 | 33904 ft | 430 kts | 281° |
| 2026-05-06 23:11 | 49.02380 | 11.57162 | 33905 ft | 430 kts | 281° |
| 2026-05-06 23:11 | 49.04185 | 11.48478 | 33902 ft | 430 kts | 281° |
| 2026-05-06 23:12 | 49.05971 | 11.39833 | 33904 ft | 430 kts | 281° |
| 2026-05-06 23:12 | 49.07767 | 11.31143 | 33904 ft | 430 kts | 281° |
| 2026-05-06 23:13 | 49.09560 | 11.22441 | 33907 ft | 430 kts | 281° |
| 2026-05-06 23:13 | 49.11333 | 11.13723 | 33905 ft | 430 kts | 281° |
| 2026-05-06 23:14 | 49.13105 | 11.04982 | 33909 ft | 431 kts | 281° |
| 2026-05-06 23:14 | 49.14866 | 10.96274 | 33911 ft | 431 kts | 281° |
| 2026-05-06 23:15 | 49.16634 | 10.87517 | 33911 ft | 431 kts | 281° |
| 2026-05-06 23:15 | 49.18398 | 10.78752 | 33910 ft | 431 kts | 281° |
| 2026-05-06 23:16 | 49.20138 | 10.69968 | 33911 ft | 431 kts | 280° |
| 2026-05-06 23:16 | 49.21734 | 10.61217 | 33907 ft | 430 kts | 279° |
| 2026-05-06 23:17 | 49.23264 | 10.52374 | 33905 ft | 430 kts | 279° |
| 2026-05-06 23:17 | 49.24802 | 10.43525 | 33900 ft | 430 kts | 279° |
| 2026-05-06 23:18 | 49.26358 | 10.34743 | 33902 ft | 430 kts | 279° |
| 2026-05-06 23:18 | 49.27919 | 10.25885 | 33898 ft | 431 kts | 279° |
| 2026-05-06 23:19 | 49.29475 | 10.17017 | 33894 ft | 431 kts | 279° |
| 2026-05-06 23:19 | 49.31019 | 10.08138 | 33900 ft | 431 kts | 279° |
| 2026-05-06 23:20 | 49.32558 | 9.99229 | 33895 ft | 432 kts | 279° |
| 2026-05-06 23:20 | 49.34085 | 9.90380 | 33899 ft | 432 kts | 279° |
| 2026-05-06 23:21 | 49.35616 | 9.81445 | 33903 ft | 432 kts | 279° |
| 2026-05-06 23:21 | 49.37129 | 9.72545 | 33904 ft | 433 kts | 279° |
| 2026-05-06 23:22 | 49.38648 | 9.63599 | 33908 ft | 433 kts | 279° |
| 2026-05-06 23:22 | 49.40159 | 9.54645 | 33908 ft | 433 kts | 279° |
| 2026-05-06 23:23 | 49.41647 | 9.45738 | 33911 ft | 433 kts | 279° |
| 2026-05-06 23:23 | 49.43146 | 9.36768 | 33911 ft | 433 kts | 279° |
| 2026-05-06 23:24 | 49.44633 | 9.27787 | 33911 ft | 433 kts | 279° |
| 2026-05-06 23:24 | 49.46107 | 9.18856 | 33915 ft | 433 kts | 279° |
| 2026-05-06 23:25 | 49.47522 | 9.09848 | 33913 ft | 432 kts | 277° |
| 2026-05-06 23:25 | 49.48773 | 9.00807 | 33912 ft | 432 kts | 277° |
| 2026-05-06 23:26 | 49.49988 | 8.91740 | 33909 ft | 432 kts | 277° |
| 2026-05-06 23:26 | 49.51215 | 8.82737 | 33914 ft | 433 kts | 277° |
| 2026-05-06 23:27 | 49.52469 | 8.73638 | 33915 ft | 434 kts | 277° |
| 2026-05-06 23:27 | 49.53713 | 8.64599 | 33919 ft | 434 kts | 277° |
| 2026-05-06 23:28 | 49.54953 | 8.55467 | 33920 ft | 434 kts | 277° |
| 2026-05-06 23:28 | 49.56177 | 8.46335 | 33922 ft | 435 kts | 277° |
| 2026-05-06 23:29 | 49.57399 | 8.37195 | 33921 ft | 435 kts | 277° |
| 2026-05-06 23:29 | 49.58607 | 8.28107 | 33921 ft | 436 kts | 277° |
| 2026-05-06 23:30 | 49.59815 | 8.18922 | 33921 ft | 437 kts | 277° |
| 2026-05-06 23:30 | 49.61023 | 8.09717 | 33926 ft | 437 kts | 277° |
| 2026-05-06 23:31 | 49.62219 | 8.00553 | 33928 ft | 438 kts | 277° |
| 2026-05-06 23:31 | 49.63411 | 7.91332 | 33924 ft | 438 kts | 277° |
| 2026-05-06 23:32 | 49.64593 | 7.82113 | 33923 ft | 438 kts | 277° |
| 2026-05-06 23:32 | 49.65761 | 7.72941 | 33920 ft | 438 kts | 277° |
| 2026-05-06 23:33 | 49.66928 | 7.63707 | 33922 ft | 438 kts | 277° |
| 2026-05-06 23:33 | 49.68094 | 7.54476 | 33923 ft | 438 kts | 277° |
| 2026-05-06 23:34 | 49.69255 | 7.45239 | 33923 ft | 437 kts | 277° |
| 2026-05-06 23:34 | 49.70392 | 7.36075 | 33928 ft | 437 kts | 277° |
| 2026-05-06 23:35 | 49.71533 | 7.26839 | 33929 ft | 437 kts | 277° |
| 2026-05-06 23:35 | 49.72666 | 7.17597 | 33929 ft | 437 kts | 277° |
| 2026-05-06 23:36 | 49.73793 | 7.08362 | 33927 ft | 436 kts | 277° |
| 2026-05-06 23:36 | 49.74903 | 6.99193 | 33932 ft | 436 kts | 277° |
| 2026-05-06 23:37 | 49.76010 | 6.89951 | 33932 ft | 436 kts | 277° |
| 2026-05-06 23:37 | 49.77114 | 6.80698 | 33939 ft | 437 kts | 277° |
| 2026-05-06 23:38 | 49.78213 | 6.71488 | 33940 ft | 437 kts | 278° |
| 2026-05-06 23:38 | 49.79307 | 6.62221 | 33939 ft | 437 kts | 278° |
| 2026-05-06 23:39 | 49.80379 | 6.53031 | 33943 ft | 437 kts | 278° |
| 2026-05-06 23:39 | 49.81242 | 6.43739 | 33939 ft | 434 kts | 269° |
| 2026-05-06 23:40 | 49.80535 | 6.34522 | 33945 ft | 430 kts | 256° |
| 2026-05-06 23:40 | 49.79345 | 6.25496 | 33945 ft | 430 kts | 257° |
| 2026-05-06 23:41 | 49.78144 | 6.16402 | 33948 ft | 431 kts | 257° |
| 2026-05-06 23:41 | 49.76933 | 6.07351 | 33953 ft | 431 kts | 257° |
| 2026-05-06 23:42 | 49.75710 | 5.98281 | 33947 ft | 431 kts | 257° |
| 2026-05-06 23:42 | 49.74474 | 5.89207 | 33948 ft | 431 kts | 256° |
| 2026-05-06 23:43 | 49.72662 | 5.80417 | 33953 ft | 429 kts | 249° |
| 2026-05-06 23:43 | 49.70985 | 5.73202 | 33952 ft | 429 kts | 249° |
| 2026-05-06 23:44 | 49.68951 | 5.64507 | 33952 ft | 430 kts | 249° |
| 2026-05-06 23:44 | 49.66916 | 5.55817 | 33952 ft | 430 kts | 249° |
| 2026-05-06 23:45 | 49.64895 | 5.47193 | 33956 ft | 430 kts | 249° |
| 2026-05-06 23:45 | 49.62847 | 5.38524 | 33960 ft | 430 kts | 249° |
| 2026-05-06 23:46 | 49.60871 | 5.29794 | 33610 ft | 432 kts | 250° |
| 2026-05-06 23:46 | 49.59940 | 5.25363 | 32966 ft | 433 kts | 252° |
| 2026-05-06 23:46 | 49.59314 | 5.20845 | 32491 ft | 430 kts | 263° |
| 2026-05-06 23:46 | 49.59202 | 5.16259 | 31999 ft | 428 kts | 270° |
| 2026-05-06 23:47 | 49.59268 | 5.11697 | 31511 ft | 424 kts | 270° |
| 2026-05-06 23:47 | 49.59311 | 5.07224 | 31030 ft | 420 kts | 269° |
| 2026-05-06 23:47 | 49.59339 | 5.02721 | 30551 ft | 416 kts | 269° |
| 2026-05-06 23:47 | 49.59361 | 4.98275 | 30074 ft | 412 kts | 269° |
| 2026-05-06 23:48 | 49.59384 | 4.93880 | 29607 ft | 408 kts | 269° |
| 2026-05-06 23:48 | 49.59409 | 4.89529 | 29149 ft | 404 kts | 269° |
| 2026-05-06 23:48 | 49.59432 | 4.85274 | 28705 ft | 400 kts | 269° |
| 2026-05-06 23:48 | 49.59459 | 4.81008 | 28262 ft | 396 kts | 270° |
| 2026-05-06 23:49 | 49.59488 | 4.76784 | 27840 ft | 391 kts | 270° |
| 2026-05-06 23:49 | 49.59512 | 4.72625 | 27449 ft | 386 kts | 270° |
| 2026-05-06 23:49 | 49.59534 | 4.68498 | 26964 ft | 383 kts | 270° |
| 2026-05-06 23:49 | 49.59554 | 4.64405 | 26501 ft | 380 kts | 270° |
| 2026-05-06 23:50 | 49.59569 | 4.60339 | 26055 ft | 377 kts | 270° |
| 2026-05-06 23:50 | 49.59586 | 4.52382 | 25202 ft | 369 kts | 270° |
| 2026-05-06 23:50 | 49.59599 | 4.48436 | 24782 ft | 366 kts | 270° |
| 2026-05-06 23:51 | 49.59612 | 4.44527 | 24356 ft | 362 kts | 270° |
| 2026-05-06 23:51 | 49.59625 | 4.40652 | 23940 ft | 359 kts | 270° |
| 2026-05-06 23:51 | 49.59635 | 4.36823 | 23530 ft | 355 kts | 270° |
| 2026-05-06 23:51 | 49.59641 | 4.33034 | 23127 ft | 353 kts | 270° |
| 2026-05-06 23:52 | 49.59649 | 4.29294 | 22718 ft | 351 kts | 270° |
| 2026-05-06 23:52 | 49.59653 | 4.25527 | 22316 ft | 349 kts | 270° |
| 2026-05-06 23:52 | 49.59654 | 4.21789 | 21913 ft | 348 kts | 270° |
| 2026-05-06 23:52 | 49.59655 | 4.18069 | 21513 ft | 345 kts | 270° |
| 2026-05-06 23:53 | 49.59653 | 4.14366 | 21114 ft | 344 kts | 270° |
| 2026-05-06 23:53 | 49.59631 | 4.10723 | 20723 ft | 343 kts | 265° |
| 2026-05-06 23:53 | 49.59238 | 4.07108 | 20328 ft | 340 kts | 253° |
| 2026-05-06 23:53 | 49.58361 | 4.03727 | 19937 ft | 339 kts | 242° |
| 2026-05-06 23:54 | 49.57115 | 4.00652 | 19547 ft | 338 kts | 237° |
| 2026-05-06 23:54 | 49.55834 | 3.97618 | 19154 ft | 337 kts | 237° |
| 2026-05-06 23:54 | 49.54580 | 3.94640 | 18771 ft | 335 kts | 237° |
| 2026-05-06 23:54 | 49.53313 | 3.91634 | 18382 ft | 334 kts | 237° |
| 2026-05-06 23:55 | 49.52049 | 3.88640 | 17987 ft | 332 kts | 237° |
| 2026-05-06 23:55 | 49.50793 | 3.85662 | 17611 ft | 331 kts | 237° |
| 2026-05-06 23:55 | 49.49542 | 3.82694 | 17232 ft | 330 kts | 237° |
| 2026-05-06 23:55 | 49.48295 | 3.79730 | 16850 ft | 329 kts | 239° |
| 2026-05-06 23:56 | 49.47303 | 3.76580 | 16474 ft | 326 kts | 251° |
| 2026-05-06 23:56 | 49.46699 | 3.73229 | 16101 ft | 324 kts | 256° |
| 2026-05-06 23:56 | 49.46146 | 3.69927 | 15963 ft | 323 kts | 256° |
| 2026-05-06 23:56 | 49.45581 | 3.66565 | 15978 ft | 324 kts | 256° |
| 2026-05-06 23:57 | 49.45015 | 3.63209 | 15889 ft | 325 kts | 256° |
| 2026-05-06 23:57 | 49.44451 | 3.59871 | 15168 ft | 321 kts | 256° |
| 2026-05-06 23:57 | 49.43890 | 3.56560 | 14269 ft | 318 kts | 256° |
| 2026-05-06 23:57 | 49.43342 | 3.53342 | 13865 ft | 307 kts | 256° |
| 2026-05-06 23:58 | 49.42803 | 3.50186 | 13518 ft | 304 kts | 255° |
| 2026-05-06 23:58 | 49.42012 | 3.47162 | 13165 ft | 305 kts | 240° |
| 2026-05-06 23:58 | 49.40752 | 3.44610 | 12804 ft | 303 kts | 225° |
| 2026-05-06 23:58 | 49.39082 | 3.42641 | 12399 ft | 302 kts | 210° |
| 2026-05-06 23:59 | 49.37247 | 3.41070 | 12034 ft | 301 kts | 210° |
| 2026-05-06 23:59 | 49.35422 | 3.39498 | 11654 ft | 300 kts | 210° |
| 2026-05-06 23:59 | 49.33615 | 3.37933 | 11275 ft | 298 kts | 211° |
| 2026-05-06 23:59 | 49.31832 | 3.36390 | 10902 ft | 296 kts | 211° |
| 2026-05-07 00:00 | 49.30043 | 3.34842 | 10530 ft | 295 kts | 211° |
| 2026-05-07 00:00 | 49.28257 | 3.33294 | 10158 ft | 293 kts | 211° |
| 2026-05-07 00:00 | 49.26495 | 3.31740 | 9794 ft | 291 kts | 213° |
| 2026-05-07 00:00 | 49.24813 | 3.30017 | 9450 ft | 289 kts | 217° |
| 2026-05-07 00:01 | 49.23192 | 3.28193 | 9104 ft | 288 kts | 219° |
| 2026-05-07 00:01 | 49.21621 | 3.26364 | 8764 ft | 286 kts | 219° |
| 2026-05-07 00:01 | 49.20037 | 3.24519 | 8422 ft | 285 kts | 219° |
| 2026-05-07 00:01 | 49.18460 | 3.22696 | 8089 ft | 283 kts | 219° |
| 2026-05-07 00:02 | 49.16885 | 3.20896 | 7751 ft | 282 kts | 218° |
| 2026-05-07 00:02 | 49.15308 | 3.19107 | 7410 ft | 281 kts | 218° |
| 2026-05-07 00:02 | 49.13741 | 3.17343 | 7076 ft | 279 kts | 218° |
| 2026-05-07 00:02 | 49.12176 | 3.15587 | 6744 ft | 279 kts | 218° |
| 2026-05-07 00:03 | 49.10616 | 3.13853 | 6408 ft | 276 kts | 218° |
| 2026-05-07 00:03 | 49.09069 | 3.12120 | 6078 ft | 275 kts | 218° |
| 2026-05-07 00:03 | 49.07545 | 3.10421 | 5755 ft | 274 kts | 218° |
| 2026-05-07 00:03 | 49.06000 | 3.08706 | 5422 ft | 272 kts | 218° |
| 2026-05-07 00:04 | 49.04472 | 3.07002 | 5107 ft | 270 kts | 218° |
| 2026-05-07 00:04 | 49.03035 | 3.05278 | 5042 ft | 254 kts | 230° |
| 2026-05-07 00:04 | 49.02136 | 3.03086 | 4982 ft | 238 kts | 253° |
| 2026-05-07 00:04 | 49.01867 | 3.00637 | 4900 ft | 234 kts | 268° |
| 2026-05-07 00:05 | 49.01770 | 2.98212 | 4826 ft | 225 kts | 268° |
| 2026-05-07 00:05 | 49.01656 | 2.95880 | 4732 ft | 218 kts | 268° |
| 2026-05-07 00:05 | 49.01542 | 2.93574 | 4546 ft | 217 kts | 268° |
| 2026-05-07 00:05 | 49.01429 | 2.91294 | 4282 ft | 215 kts | 268° |
| 2026-05-07 00:06 | 49.01314 | 2.89023 | 3994 ft | 214 kts | 268° |
| 2026-05-07 00:06 | 49.01200 | 2.86749 | 3714 ft | 214 kts | 268° |
| 2026-05-07 00:06 | 49.01086 | 2.84489 | 3432 ft | 214 kts | 267° |
| 2026-05-07 00:06 | 49.00971 | 2.82237 | 3150 ft | 213 kts | 268° |
| 2026-05-07 00:07 | 49.00859 | 2.80053 | 2885 ft | 205 kts | 268° |
| 2026-05-07 00:07 | 49.00751 | 2.77932 | 2608 ft | 195 kts | 268° |
| 2026-05-07 00:07 | 49.00648 | 2.75943 | 2361 ft | 180 kts | 268° |
| 2026-05-07 00:07 | 49.00554 | 2.74138 | 2131 ft | 164 kts | 268° |
| 2026-05-07 00:08 | 49.00469 | 2.72465 | 1899 ft | 153 kts | 268° |
| 2026-05-07 00:08 | 49.00387 | 2.70877 | 1717 ft | 148 kts | 268° |
| 2026-05-07 00:08 | 49.00308 | 2.69340 | 1525 ft | 146 kts | 268° |
| 2026-05-07 00:08 | 49.00228 | 2.67808 | 1334 ft | 145 kts | 268° |
| 2026-05-07 00:09 | 49.00149 | 2.66281 | 1142 ft | 144 kts | 268° |
| 2026-05-07 00:09 | 49.00069 | 2.64758 | 950 ft | 144 kts | 268° |
| 2026-05-07 00:09 | 48.99989 | 2.63238 | 756 ft | 144 kts | 268° |
| 2026-05-07 00:09 | 48.99916 | 2.61721 | 585 ft | 143 kts | 267° |
| 2026-05-07 00:10 | 48.99829 | 2.60225 | 402 ft | 143 kts | 268° |
| 2026-05-07 00:10 | 48.99760 | 2.58795 | 354 ft | 122 kts | 263° |
| 2026-05-07 00:10 | 48.99705 | 2.57761 | 356 ft | 73 kts | 264° |
| 2026-05-07 00:10 | 48.99672 | 2.57249 | 356 ft | 28 kts | 266° |
| 2026-05-07 00:11 | 48.99661 | 2.56961 | 356 ft | 25 kts | 265° |
| 2026-05-07 00:11 | 48.99663 | 2.56703 | 363 ft | 24 kts | 279° |
| 2026-05-07 00:11 | 48.99699 | 2.56484 | 354 ft | 16 kts | 285° |
| 2026-05-07 00:11 | 48.99727 | 2.56347 | 362 ft | 12 kts | 289° |
| 2026-05-07 00:12 | 48.99779 | 2.56275 | 359 ft | 0 kts | 345° |
| 2026-05-07 00:12 | 48.99780 | 2.56275 | 354 ft | 1 kts | 345° |
| 2026-05-07 00:12 | 48.99792 | 2.56271 | 354 ft | 2 kts | 353° |
| 2026-05-07 00:12 | 48.99814 | 2.56270 | 354 ft | 4 kts | 357° |
| 2026-05-07 00:13 | 48.99847 | 2.56262 | 360 ft | 6 kts | 345° |
| 2026-05-07 00:13 | 48.99890 | 2.56204 | 357 ft | 12 kts | 295° |
| 2026-05-07 00:13 | 48.99892 | 2.56062 | 354 ft | 15 kts | 265° |
| 2026-05-07 00:13 | 48.99890 | 2.56017 | 360 ft | 5 kts | 268° |
| 2026-05-07 00:14 | 48.99890 | 2.55957 | 361 ft | 6 kts | 274° |
| 2026-05-07 00:14 | 48.99901 | 2.55883 | 354 ft | 8 kts | 286° |
| 2026-05-07 00:14 | 48.99918 | 2.55794 | 362 ft | 9 kts | 287° |
| 2026-05-07 00:14 | 48.99923 | 2.55769 | 354 ft | 3 kts | 288° |
| 2026-05-07 00:15 | 48.99935 | 2.55729 | 354 ft | 6 kts | 301° |
| 2026-05-07 00:15 | 48.99972 | 2.55651 | 354 ft | 12 kts | 299° |
| 2026-05-07 00:15 | 49.00008 | 2.55534 | 363 ft | 13 kts | 314° |
| 2026-05-07 00:15 | 49.00093 | 2.55485 | 359 ft | 14 kts | 346° |
| 2026-05-07 00:16 | 49.00191 | 2.55445 | 360 ft | 15 kts | 342° |
| 2026-05-07 00:16 | 49.00295 | 2.55396 | 363 ft | 17 kts | 343° |
| 2026-05-07 00:16 | 49.00410 | 2.55346 | 359 ft | 18 kts | 345° |
| 2026-05-07 00:16 | 49.00523 | 2.55298 | 360 ft | 12 kts | 344° |
| 2026-05-07 00:17 | 49.00604 | 2.55262 | 358 ft | 12 kts | 343° |
| 2026-05-07 00:17 | 49.00687 | 2.55224 | 362 ft | 13 kts | 343° |
| 2026-05-07 00:17 | 49.00779 | 2.55184 | 355 ft | 15 kts | 345° |
| 2026-05-07 00:17 | 49.00880 | 2.55141 | 355 ft | 16 kts | 343° |
| 2026-05-07 00:18 | 49.00987 | 2.55094 | 363 ft | 16 kts | 344° |
| 2026-05-07 00:18 | 49.01096 | 2.55047 | 358 ft | 16 kts | 343° |
| 2026-05-07 00:18 | 49.01201 | 2.54997 | 355 ft | 16 kts | 328° |
| 2026-05-07 00:18 | 49.01228 | 2.54840 | 363 ft | 17 kts | 265° |
| 2026-05-07 00:19 | 49.01216 | 2.54658 | 355 ft | 18 kts | 264° |
| 2026-05-07 00:19 | 49.01204 | 2.54461 | 354 ft | 18 kts | 265° |
| 2026-05-07 00:19 | 49.01197 | 2.54292 | 354 ft | 7 kts | 268° |
| 2026-05-07 00:19 | 49.01195 | 2.54245 | 350 ft | 4 kts | 266° |
| 2026-05-07 00:20 | 49.01190 | 2.54168 | 350 ft | 10 kts | 264° |
| 2026-05-07 00:20 | 49.01185 | 2.54064 | 351 ft | 10 kts | 266° |
| 2026-05-07 00:20 | 49.01180 | 2.53968 | 360 ft | 9 kts | 264° |
| 2026-05-07 00:20 | 49.01175 | 2.53873 | 360 ft | 10 kts | 265° |
| 2026-05-07 00:21 | 49.01191 | 2.53771 | 354 ft | 11 kts | 301° |
| 2026-05-07 00:21 | 49.01236 | 2.53719 | 354 ft | 6 kts | 20° |
| 2026-05-07 00:21 | 49.01248 | 2.53784 | 358 ft | 7 kts | 81° |
| 2026-05-07 00:21 | 49.01252 | 2.53844 | 360 ft | 6 kts | 88° |
| 2026-05-07 00:22 | 49.01252 | 2.53865 | 354 ft | 0 kts | 89° |